Time;durP1;ratioP1;P1;durP2;ratioP2;P2;SDS_P1;SDS_P2;PMS_P1;PMS_P2;Temp;Humidity;BMP_temperature;BMP_pressure;BME280_temperature;BME280_humidity;BME280_pressure;Samples;Min_cycle;Max_cycle;Signal;HPM_P1;HPM_P2
2020/12/02 00:00:59;;;;;;;32.92;18.30;;;6.80;93.80;;;;;;5029652;28;20033;-74
2020/12/02 00:03:32;;;;;;;33.40;17.52;;;6.70;93.80;;;;;;5032034;28;20052;-74
2020/12/02 00:05:58;;;;;;;31.80;17.90;;;6.70;93.80;;;;;;5038015;28;20022;-74
2020/12/02 00:08:37;;;;;;;34.05;17.35;;;6.70;93.80;;;;;;5028567;28;20064;-75
2020/12/02 00:11:07;;;;;;;34.38;18.33;;;6.70;93.80;;;;;;5032671;28;20029;-74
2020/12/02 00:13:40;;;;;;;31.50;17.00;;;6.70;93.80;;;;;;5013855;28;20073;-74
2020/12/02 00:16:07;;;;;;;31.75;16.10;;;6.70;93.80;;;;;;5026806;28;20076;-74
2020/12/02 00:18:34;;;;;;;34.50;18.42;;;6.70;93.90;;;;;;5028224;28;20373;-75
2020/12/02 00:21:01;;;;;;;32.95;17.35;;;6.70;93.90;;;;;;5018387;28;20026;-75
2020/12/02 00:23:26;;;;;;;38.67;19.80;;;6.70;93.90;;;;;;5024799;28;20037;-75
2020/12/02 00:25:52;;;;;;;36.35;18.88;;;6.70;93.90;;;;;;5033723;28;20029;-75
2020/12/02 00:28:18;;;;;;;34.50;18.98;;;6.70;93.90;;;;;;5031190;28;20506;-75
2020/12/02 00:30:44;;;;;;;39.58;19.92;;;6.70;93.90;;;;;;5032032;28;20447;-75
2020/12/02 00:33:17;;;;;;;36.15;18.88;;;6.70;93.80;;;;;;5029764;28;20365;-75
2020/12/02 00:35:43;;;;;;;36.65;19.30;;;6.70;93.90;;;;;;5028310;28;20100;-75
2020/12/02 00:38:12;;;;;;;40.60;19.90;;;6.70;93.90;;;;;;5028647;28;20116;-75
2020/12/02 00:40:44;;;;;;;37.75;19.83;;;6.70;94.20;;;;;;5034426;28;20052;-75
2020/12/02 00:43:11;;;;;;;38.95;20.27;;;6.70;93.90;;;;;;5030877;28;20029;-75
2020/12/02 00:45:36;;;;;;;37.95;20.75;;;6.60;94.00;;;;;;5064285;28;20025;-75
2020/12/02 00:48:02;;;;;;;35.20;19.02;;;6.70;94.00;;;;;;5018444;28;20092;-75
2020/12/02 00:50:28;;;;;;;35.03;19.95;;;6.70;94.00;;;;;;5027406;28;20044;-75
2020/12/02 00:53:12;;;;;;;40.75;20.20;;;6.60;94.00;;;;;;5030748;28;20026;-75
2020/12/02 00:55:38;;;;;;;39.38;20.50;;;6.60;94.00;;;;;;5029098;28;20095;-75
2020/12/02 00:58:08;;;;;;;35.55;19.63;;;6.60;94.10;;;;;;5032327;28;20025;-75
2020/12/02 01:00:38;;;;;;;44.50;20.48;;;6.70;94.10;;;;;;5029250;28;20120;-74
2020/12/02 01:03:23;;;;;;;36.20;20.05;;;6.60;94.00;;;;;;5034994;28;20064;-74
2020/12/02 01:05:49;;;;;;;42.70;20.13;;;6.60;94.10;;;;;;5031237;28;20037;-74
2020/12/02 01:08:26;;;;;;;39.47;19.10;;;6.60;94.10;;;;;;5023502;28;20113;-76
2020/12/02 01:11:22;;;;;;;35.40;17.92;;;6.60;94.10;;;;;;5015920;28;20368;-76
2020/12/02 01:13:56;;;;;;;36.75;19.38;;;6.60;94.10;;;;;;5021918;28;20028;-76
2020/12/02 01:16:29;;;;;;;36.22;19.42;;;6.60;94.10;;;;;;5020518;28;20025;-76
2020/12/02 01:18:56;;;;;;;35.80;19.00;;;6.60;94.10;;;;;;5015649;28;20395;-76
2020/12/02 01:21:56;;;;;;;33.58;20.15;;;6.60;94.10;;;;;;5035548;28;21036;-76
2020/12/02 01:24:36;;;;;;;35.42;17.75;;;6.60;94.10;;;;;;5019718;28;20465;-76
2020/12/02 01:27:24;;;;;;;33.78;17.98;;;6.60;94.10;;;;;;5032245;28;20052;-76
2020/12/02 01:29:52;;;;;;;36.95;17.25;;;6.60;94.10;;;;;;5032501;28;20108;-76
2020/12/02 01:32:17;;;;;;;34.80;18.42;;;6.60;94.10;;;;;;5035913;28;20032;-76
2020/12/02 01:34:51;;;;;;;27.85;15.98;;;6.60;94.10;;;;;;5019785;28;20026;-76
2020/12/02 01:37:30;;;;;;;33.45;17.10;;;6.60;94.10;;;;;;5017195;28;20399;-76
2020/12/02 01:40:06;;;;;;;31.35;17.08;;;6.60;94.10;;;;;;5032353;28;20029;-76
2020/12/02 01:42:31;;;;;;;33.35;18.63;;;6.50;94.10;;;;;;5033397;28;20112;-76
2020/12/02 01:44:57;;;;;;;33.50;16.98;;;6.50;94.10;;;;;;5040169;28;20053;-76
2020/12/02 01:47:46;;;;;;;32.38;16.08;;;6.60;94.10;;;;;;5032414;28;20076;-76
2020/12/02 01:50:28;;;;;;;35.90;19.55;;;6.50;94.10;;;;;;5022209;28;20734;-76
2020/12/02 01:53:04;;;;;;;36.37;17.60;;;6.50;94.10;;;;;;5034297;28;20033;-76
2020/12/02 01:55:42;;;;;;;35.80;17.38;;;6.50;94.20;;;;;;5034092;28;20052;-76
2020/12/02 01:58:16;;;;;;;31.65;17.20;;;6.50;94.20;;;;;;5030118;28;20117;-76
2020/12/02 02:00:46;;;;;;;37.08;18.58;;;6.50;94.20;;;;;;5032104;28;20037;-76
2020/12/02 02:03:16;;;;;;;34.75;18.88;;;6.50;94.20;;;;;;5017888;28;20039;-76
2020/12/02 02:05:51;;;;;;;39.13;20.75;;;6.50;94.20;;;;;;5015868;28;20084;-76
2020/12/02 02:08:17;;;;;;;36.63;19.25;;;6.50;94.30;;;;;;5030897;28;20026;-76
2020/12/02 02:10:47;;;;;;;33.20;16.42;;;6.50;94.20;;;;;;5034797;28;20025;-76
2020/12/02 02:13:50;;;;;;;36.00;18.88;;;6.50;94.20;;;;;;5033898;28;20022;-76
2020/12/02 02:16:30;;;;;;;35.20;16.73;;;6.60;94.30;;;;;;5018465;28;20096;-76
2020/12/02 02:18:56;;;;;;;34.30;18.67;;;6.60;94.30;;;;;;5050527;28;20107;-76
2020/12/02 02:21:26;;;;;;;36.38;19.40;;;6.60;94.30;;;;;;5023694;28;20069;-77
2020/12/02 02:23:52;;;;;;;36.20;18.83;;;6.60;94.20;;;;;;5026107;28;20022;-74
2020/12/02 02:26:33;;;;;;;40.30;21.08;;;6.50;94.20;;;;;;5044742;28;20139;-74
2020/12/02 02:28:59;;;;;;;41.42;20.08;;;6.50;94.20;;;;;;5030859;28;20416;-75
2020/12/02 02:31:27;;;;;;;36.72;19.00;;;6.50;94.30;;;;;;5019460;28;20080;-74
2020/12/02 02:33:53;;;;;;;39.33;19.83;;;6.50;94.30;;;;;;5019844;28;20512;-75
2020/12/02 02:36:23;;;;;;;35.03;18.67;;;6.40;94.30;;;;;;5034041;28;20110;-75
2020/12/02 02:38:49;;;;;;;35.90;19.10;;;6.40;94.40;;;;;;5032061;28;20038;-75
2020/12/02 02:41:15;;;;;;;39.80;19.48;;;6.40;94.40;;;;;;5034052;28;20087;-75
2020/12/02 02:43:40;;;;;;;35.55;18.73;;;6.40;94.40;;;;;;5033438;28;20036;-75
2020/12/02 02:46:07;;;;;;;38.28;18.58;;;6.40;94.40;;;;;;5032722;28;20038;-75
2020/12/02 02:48:34;;;;;;;37.78;18.23;;;6.40;94.40;;;;;;5032967;28;20036;-75
2020/12/02 02:51:00;;;;;;;34.95;18.90;;;6.40;94.50;;;;;;5028677;28;20049;-74
2020/12/02 02:53:27;;;;;;;37.88;19.58;;;6.40;94.50;;;;;;5043270;28;20037;-74
2020/12/02 02:55:56;;;;;;;39.70;17.33;;;6.40;94.50;;;;;;5028363;28;20022;-74
2020/12/02 02:58:25;;;;;;;41.03;19.83;;;6.40;94.80;;;;;;5025609;28;20083;-74
2020/12/02 03:00:52;;;;;;;37.28;19.65;;;6.50;94.50;;;;;;5032882;28;20017;-74
2020/12/02 03:03:19;;;;;;;38.63;18.27;;;6.50;94.50;;;;;;5033931;28;20029;-74
2020/12/02 03:05:45;;;;;;;35.58;18.67;;;6.50;94.50;;;;;;5048082;28;20029;-74
2020/12/02 03:08:11;;;;;;;37.97;18.52;;;6.40;94.40;;;;;;5025229;28;20476;-74
2020/12/02 03:10:40;;;;;;;39.97;19.35;;;6.50;94.40;;;;;;5018803;28;20026;-74
2020/12/02 03:13:27;;;;;;;35.70;18.50;;;6.50;94.40;;;;;;5015925;28;20480;-74
2020/12/02 03:15:53;;;;;;;40.10;18.27;;;6.50;94.40;;;;;;5032599;28;20545;-74
2020/12/02 03:18:20;;;;;;;38.95;19.05;;;6.50;94.40;;;;;;5018148;28;20030;-74
2020/12/02 03:20:52;;;;;;;39.55;18.15;;;6.50;94.40;;;;;;5022252;28;20039;-74
2020/12/02 03:23:19;;;;;;;33.33;18.02;;;6.50;94.40;;;;;;5031594;28;20057;-74
2020/12/02 03:25:46;;;;;;;31.75;16.50;;;6.40;94.40;;;;;;5032953;28;20079;-74
2020/12/02 03:28:11;;;;;;;32.42;17.65;;;6.50;94.40;;;;;;5031976;28;20037;-74
2020/12/02 03:30:38;;;;;;;35.55;18.25;;;6.50;94.40;;;;;;5033669;28;20379;-74
2020/12/02 03:33:05;;;;;;;37.70;19.13;;;6.50;94.40;;;;;;5033156;28;20383;-74
2020/12/02 03:35:31;;;;;;;36.88;19.00;;;6.50;94.40;;;;;;5032560;28;20500;-74
2020/12/02 03:37:57;;;;;;;33.40;18.08;;;6.40;94.40;;;;;;5035282;28;20036;-74
2020/12/02 03:40:23;;;;;;;35.60;17.92;;;6.40;94.40;;;;;;5030757;28;20446;-74
2020/12/02 03:42:48;;;;;;;39.88;18.63;;;6.40;94.40;;;;;;5030840;28;20048;-74
2020/12/02 03:45:14;;;;;;;35.05;17.42;;;6.40;94.40;;;;;;5029749;28;20025;-75
2020/12/02 03:47:39;;;;;;;32.15;16.83;;;6.50;94.40;;;;;;5029126;28;20052;-75
2020/12/02 03:50:07;;;;;;;34.47;16.65;;;6.50;94.40;;;;;;5026658;28;20034;-75
2020/12/02 03:52:33;;;;;;;33.63;16.88;;;6.50;94.40;;;;;;5027082;28;20025;-76
2020/12/02 03:54:58;;;;;;;37.15;18.40;;;6.50;94.40;;;;;;5032655;28;20036;-76
2020/12/02 03:57:24;;;;;;;36.40;17.20;;;6.40;94.30;;;;;;5032679;28;20037;-76
2020/12/02 03:59:50;;;;;;;33.58;17.70;;;6.40;94.30;;;;;;5033569;28;20387;-76
2020/12/02 04:02:15;;;;;;;37.30;18.42;;;6.40;94.40;;;;;;5030060;28;20057;-76
2020/12/02 04:04:41;;;;;;;37.42;17.38;;;6.40;94.40;;;;;;5022359;28;20124;-76
2020/12/02 04:07:06;;;;;;;39.95;17.83;;;6.40;94.40;;;;;;5031459;28;20030;-76
2020/12/02 04:09:32;;;;;;;36.88;17.65;;;6.40;94.40;;;;;;5027706;28;20056;-76
2020/12/02 04:11:57;;;;;;;38.78;18.42;;;6.30;94.50;;;;;;5027583;28;20018;-76
2020/12/02 04:14:23;;;;;;;42.03;18.00;;;6.30;94.50;;;;;;5014083;28;20105;-75
2020/12/02 04:16:48;;;;;;;38.33;18.15;;;6.30;94.50;;;;;;5031577;28;20037;-76
2020/12/02 04:19:14;;;;;;;37.53;17.90;;;6.30;94.50;;;;;;5019732;28;20041;-76
2020/12/02 04:21:39;;;;;;;40.90;18.55;;;6.30;94.60;;;;;;5044395;28;20101;-76
2020/12/02 04:24:05;;;;;;;38.58;17.95;;;6.30;94.50;;;;;;5026055;28;20441;-76
2020/12/02 04:26:30;;;;;;;42.58;18.27;;;6.30;94.60;;;;;;5032382;28;20488;-76
2020/12/02 04:28:56;;;;;;;49.13;19.90;;;6.30;94.60;;;;;;5031482;28;20103;-76
2020/12/02 04:31:21;;;;;;;39.58;18.45;;;6.30;94.60;;;;;;5032288;28;20029;-76
2020/12/02 04:33:47;;;;;;;41.80;17.67;;;6.30;94.60;;;;;;5024355;28;20033;-76
2020/12/02 04:36:14;;;;;;;39.40;15.98;;;6.30;94.70;;;;;;5030412;28;20038;-76
2020/12/02 04:38:39;;;;;;;43.47;18.08;;;6.30;94.60;;;;;;5030845;28;20034;-76
2020/12/02 04:41:10;;;;;;;37.45;16.90;;;6.30;94.60;;;;;;5032224;28;20037;-76
2020/12/02 04:43:38;;;;;;;41.47;17.40;;;6.30;94.60;;;;;;5032665;28;20486;-74
2020/12/02 04:46:18;;;;;;;42.05;17.15;;;6.40;94.70;;;;;;5028182;28;20057;-75
2020/12/02 04:48:48;;;;;;;44.40;16.98;;;6.40;94.70;;;;;;5021911;28;20030;-74
2020/12/02 04:51:18;;;;;;;44.05;16.42;;;6.40;94.70;;;;;;5025289;28;20049;-75
2020/12/02 04:53:47;;;;;;;37.35;16.58;;;6.40;94.70;;;;;;5020311;28;20108;-74
2020/12/02 04:56:13;;;;;;;39.47;17.15;;;6.30;94.60;;;;;;5029218;28;20037;-74
2020/12/02 04:58:40;;;;;;;38.45;16.83;;;6.30;94.60;;;;;;5031168;28;20033;-74
2020/12/02 05:01:20;;;;;;;38.70;16.48;;;6.30;94.60;;;;;;5031540;28;20039;-75
2020/12/02 05:03:58;;;;;;;36.47;15.88;;;6.30;94.60;;;;;;5027667;28;20390;-75
2020/12/02 05:06:44;;;;;;;36.55;15.20;;;6.20;94.70;;;;;;5030608;28;20021;-76
2020/12/02 05:09:20;;;;;;;41.78;15.88;;;6.20;94.70;;;;;;5031117;28;20022;-76
2020/12/02 05:12:20;;;;;;;39.88;16.35;;;6.20;94.70;;;;;;5027611;28;20030;-76
2020/12/02 05:14:47;;;;;;;45.47;16.98;;;6.20;94.70;;;;;;5017675;28;20037;-76
2020/12/02 05:17:29;;;;;;;46.42;17.77;;;6.20;94.80;;;;;;5027706;28;20026;-76
2020/12/02 05:20:11;;;;;;;43.95;18.02;;;6.20;94.80;;;;;;5029283;28;20033;-76
2020/12/02 05:22:40;;;;;;;46.53;17.75;;;6.20;94.80;;;;;;5015953;28;20026;-76
2020/12/02 05:25:18;;;;;;;41.08;17.02;;;6.20;94.80;;;;;;5029749;28;20064;-76
2020/12/02 05:27:48;;;;;;;50.58;18.25;;;6.20;94.80;;;;;;5027482;28;20045;-76
2020/12/02 05:30:27;;;;;;;46.42;17.35;;;6.20;94.80;;;;;;5023848;28;20060;-76
2020/12/02 05:33:10;;;;;;;47.83;19.60;;;6.20;94.90;;;;;;5024537;28;20030;-75
2020/12/02 05:35:42;;;;;;;50.08;20.48;;;6.30;94.90;;;;;;5027179;28;20064;-76
2020/12/02 05:38:10;;;;;;;49.72;19.13;;;6.20;94.80;;;;;;5021302;28;20439;-76
2020/12/02 05:40:37;;;;;;;51.03;19.30;;;6.20;94.90;;;;;;5020358;28;20492;-76
2020/12/02 05:43:17;;;;;;;53.97;21.50;;;6.20;94.90;;;;;;5030970;28;20416;-76
2020/12/02 05:45:47;;;;;;;54.15;21.40;;;6.20;94.90;;;;;;5018884;28;20034;-76
2020/12/02 05:48:22;;;;;;;56.88;22.50;;;6.20;94.90;;;;;;5031396;28;20049;-76
2020/12/02 05:50:47;;;;;;;58.17;25.17;;;6.20;94.90;;;;;;5015704;28;20069;-76
2020/12/02 05:53:29;;;;;;;58.53;23.15;;;6.20;94.90;;;;;;5024756;28;20034;-76
2020/12/02 05:55:54;;;;;;;53.28;21.77;;;6.10;94.90;;;;;;5013287;28;20436;-76
2020/12/02 05:58:30;;;;;;;56.22;23.08;;;6.10;95.00;;;;;;5016787;28;20072;-76
2020/12/02 06:00:56;;;;;;;53.08;20.88;;;6.20;95.00;;;;;;5031298;28;20031;-76
2020/12/02 06:03:34;;;;;;;71.20;25.35;;;6.20;95.10;;;;;;5032604;28;20432;-75
2020/12/02 06:06:11;;;;;;;64.47;22.10;;;6.20;95.00;;;;;;5032279;28;20033;-76
2020/12/02 06:08:46;;;;;;;61.53;23.45;;;6.20;95.00;;;;;;5031383;28;20025;-76
2020/12/02 06:11:17;;;;;;;56.30;22.30;;;6.20;95.00;;;;;;5026071;28;20036;-76
2020/12/02 06:13:53;;;;;;;50.88;20.85;;;6.20;95.10;;;;;;5039564;28;20093;-76
2020/12/02 06:16:43;;;;;;;55.80;21.42;;;6.20;95.10;;;;;;5055960;28;20089;-76
2020/12/02 06:19:16;;;;;;;61.53;23.92;;;6.20;95.00;;;;;;5036187;28;20022;-76
2020/12/02 06:21:57;;;;;;;59.28;22.50;;;6.20;95.00;;;;;;5026013;28;20030;-74
2020/12/02 06:24:39;;;;;;;57.33;21.42;;;6.20;95.00;;;;;;5035329;28;20041;-75
2020/12/02 06:27:16;;;;;;;64.28;23.75;;;6.20;95.00;;;;;;5034653;28;20432;-74
2020/12/02 06:29:51;;;;;;;77.85;28.10;;;6.20;95.00;;;;;;5033713;28;20037;-75
2020/12/02 06:32:18;;;;;;;58.75;22.58;;;6.20;95.00;;;;;;5025418;28;20033;-76
2020/12/02 06:34:44;;;;;;;76.10;27.33;;;6.20;95.10;;;;;;5035730;28;20076;-74
2020/12/02 06:37:15;;;;;;;72.20;25.90;;;6.10;95.00;;;;;;5025097;28;20482;-74
2020/12/02 06:39:57;;;;;;;73.60;25.00;;;6.10;95.00;;;;;;5019460;28;20415;-74
2020/12/02 06:42:34;;;;;;;67.50;24.20;;;6.10;95.00;;;;;;5025454;28;20021;-74
2020/12/02 06:45:36;;;;;;;70.38;23.75;;;6.10;95.10;;;;;;5025717;28;20025;-74
2020/12/02 06:48:13;;;;;;;52.88;21.80;;;6.10;95.10;;;;;;5029448;28;20081;-77
2020/12/02 06:50:39;;;;;;;66.30;22.98;;;6.10;95.20;;;;;;5015554;28;20057;-76
2020/12/02 06:53:19;;;;;;;56.30;20.67;;;6.10;95.20;;;;;;5023237;28;20045;-74
2020/12/02 06:55:45;;;;;;;56.38;20.58;;;6.10;95.20;;;;;;5031278;28;20029;-74
2020/12/02 06:58:17;;;;;;;54.05;19.67;;;6.10;95.20;;;;;;5019138;28;20040;-75
2020/12/02 07:00:48;;;;;;;49.92;20.60;;;6.10;95.20;;;;;;5030513;28;20550;-75
2020/12/02 07:03:39;;;;;;;60.65;20.70;;;6.10;95.20;;;;;;5029900;28;20053;-75
2020/12/02 07:06:17;;;;;;;54.15;20.05;;;6.10;95.20;;;;;;5033630;28;20044;-75
2020/12/02 07:08:44;;;;;;;56.70;20.00;;;6.20;95.20;;;;;;5035095;28;20029;-74
2020/12/02 07:11:12;;;;;;;47.72;18.58;;;6.10;95.20;;;;;;5029611;28;20026;-75
2020/12/02 07:13:41;;;;;;;57.58;19.80;;;6.10;95.20;;;;;;5015321;28;20032;-75
2020/12/02 07:16:29;;;;;;;44.10;17.75;;;6.10;95.20;;;;;;5017041;28;20029;-75
2020/12/02 07:19:04;;;;;;;55.22;18.27;;;6.10;95.20;;;;;;5033656;28;20095;-75
2020/12/02 07:21:30;;;;;;;40.20;15.73;;;6.10;95.20;;;;;;5033887;28;20113;-75
2020/12/02 07:23:57;;;;;;;42.05;15.52;;;6.10;95.20;;;;;;5026059;28;20121;-75
2020/12/02 07:26:22;;;;;;;41.90;16.23;;;6.10;95.20;;;;;;5033119;28;20030;-75
2020/12/02 07:29:15;;;;;;;38.92;15.88;;;6.10;95.20;;;;;;5034542;28;20040;-76
2020/12/02 07:31:41;;;;;;;46.42;16.83;;;6.10;95.20;;;;;;5033145;28;20120;-76
2020/12/02 07:34:20;;;;;;;41.70;15.65;;;6.10;95.20;;;;;;5033975;28;20104;-76
2020/12/02 07:36:46;;;;;;;37.53;16.15;;;6.10;95.50;;;;;;5030516;28;20030;-76
2020/12/02 07:39:20;;;;;;;36.88;15.15;;;6.10;95.30;;;;;;5034604;28;20037;-76
2020/12/02 07:41:55;;;;;;;44.67;17.02;;;6.00;95.20;;;;;;5034645;28;20029;-75
2020/12/02 07:44:22;;;;;;;38.25;15.50;;;6.00;95.20;;;;;;5034294;28;20391;-75
2020/12/02 07:46:49;;;;;;;36.65;14.18;;;6.00;95.30;;;;;;5033407;28;20068;-76
2020/12/02 07:49:16;;;;;;;39.92;16.27;;;6.10;95.30;;;;;;5054842;28;20459;-75
2020/12/02 07:51:50;;;;;;;43.47;15.77;;;6.10;95.30;;;;;;5034290;28;20534;-75
2020/12/02 07:54:28;;;;;;;37.00;15.15;;;6.10;95.30;;;;;;5034300;28;20026;-75
2020/12/02 07:56:54;;;;;;;37.42;15.48;;;6.10;95.60;;;;;;5033482;28;20018;-75
2020/12/02 07:59:24;;;;;;;39.58;14.52;;;6.10;95.30;;;;;;5032820;28;20075;-75
2020/12/02 08:01:58;;;;;;;38.55;15.02;;;6.20;95.20;;;;;;5029885;28;20105;-74
2020/12/02 08:04:27;;;;;;;41.42;15.48;;;6.10;95.20;;;;;;5030264;28;20101;-74
2020/12/02 08:06:58;;;;;;;35.13;14.60;;;6.10;95.20;;;;;;5032844;28;20035;-75
2020/12/02 08:09:23;;;;;;;29.65;14.05;;;6.20;95.20;;;;;;5014215;28;20033;-75
2020/12/02 08:11:58;;;;;;;31.73;14.73;;;6.20;95.20;;;;;;5025828;28;20417;-75
2020/12/02 08:14:30;;;;;;;34.65;14.73;;;6.20;95.20;;;;;;5021454;28;20105;-75
2020/12/02 08:17:11;;;;;;;34.13;14.00;;;6.20;95.40;;;;;;5018357;28;20021;-74
2020/12/02 08:19:40;;;;;;;36.10;14.25;;;6.20;95.20;;;;;;5032777;28;20275;-76
2020/12/02 08:22:11;;;;;;;24.75;13.05;;;6.20;95.10;;;;;;5031835;28;20038;-75
2020/12/02 08:24:41;;;;;;;28.13;13.07;;;6.20;95.00;;;;;;5014803;28;20030;-75
2020/12/02 08:27:14;;;;;;;28.35;13.65;;;6.20;95.00;;;;;;5031690;28;20033;-75
2020/12/02 08:29:48;;;;;;;28.88;12.30;;;6.20;95.00;;;;;;5031419;28;20079;-75
2020/12/02 08:32:32;;;;;;;29.55;12.93;;;6.20;95.00;;;;;;5033722;28;20029;-75
2020/12/02 08:34:58;;;;;;;24.85;12.75;;;6.20;95.00;;;;;;5032974;28;20021;-75
2020/12/02 08:37:38;;;;;;;24.98;12.73;;;6.20;95.00;;;;;;5033053;28;20486;-75
2020/12/02 08:40:24;;;;;;;25.05;12.13;;;6.20;95.00;;;;;;5034772;28;20040;-75
2020/12/02 08:42:51;;;;;;;31.27;13.13;;;6.20;95.00;;;;;;5026436;28;20026;-74
2020/12/02 08:45:21;;;;;;;23.23;11.63;;;6.20;94.90;;;;;;5044274;28;20038;-75
2020/12/02 08:47:54;;;;;;;26.55;12.80;;;6.20;94.90;;;;;;5030416;28;20049;-75
2020/12/02 08:50:30;;;;;;;26.13;11.60;;;6.30;94.90;;;;;;5033342;28;20052;-75
2020/12/02 08:52:58;;;;;;;23.10;11.70;;;6.30;94.90;;;;;;5032434;28;20064;-75
2020/12/02 08:55:25;;;;;;;22.63;11.45;;;6.30;94.90;;;;;;5016598;28;20117;-75
2020/12/02 08:57:51;;;;;;;28.48;12.15;;;6.30;95.00;;;;;;5034478;28;20026;-75
2020/12/02 09:00:18;;;;;;;20.92;10.85;;;6.40;94.90;;;;;;5032728;28;20036;-75
2020/12/02 09:02:44;;;;;;;25.55;12.40;;;6.40;94.90;;;;;;5033239;28;20071;-75
2020/12/02 09:05:10;;;;;;;23.30;10.98;;;6.40;94.90;;;;;;5031761;28;20021;-75
2020/12/02 09:07:35;;;;;;;20.60;11.07;;;6.40;94.80;;;;;;5033182;28;20036;-75
2020/12/02 09:10:02;;;;;;;24.30;12.00;;;6.50;94.80;;;;;;5032810;28;20037;-75
2020/12/02 09:12:27;;;;;;;22.55;11.35;;;6.40;94.80;;;;;;5025727;28;20022;-74
2020/12/02 09:14:53;;;;;;;21.35;10.73;;;6.50;94.80;;;;;;5031856;28;20021;-74
2020/12/02 09:17:19;;;;;;;22.13;11.07;;;6.50;94.70;;;;;;5033140;28;20387;-74
2020/12/02 09:19:44;;;;;;;22.85;11.35;;;6.50;94.70;;;;;;5033174;28;20029;-74
2020/12/02 09:22:13;;;;;;;24.23;11.75;;;6.50;94.60;;;;;;5033038;28;20036;-75
2020/12/02 09:24:40;;;;;;;26.00;12.10;;;6.60;94.60;;;;;;5023401;28;20041;-76
2020/12/02 09:27:05;;;;;;;19.83;11.48;;;6.60;94.60;;;;;;5013387;28;20037;-76
2020/12/02 09:29:31;;;;;;;26.23;12.98;;;6.60;94.50;;;;;;5022536;28;20476;-76
2020/12/02 09:31:57;;;;;;;25.52;12.30;;;6.60;94.50;;;;;;5031981;28;20021;-75
2020/12/02 09:34:22;;;;;;;22.67;11.23;;;6.60;94.50;;;;;;5032516;28;20026;-75
2020/12/02 09:36:48;;;;;;;24.88;11.98;;;6.60;94.50;;;;;;5038832;28;20029;-75
2020/12/02 09:39:14;;;;;;;28.92;12.57;;;6.60;94.50;;;;;;5038483;28;20101;-76
2020/12/02 09:41:51;;;;;;;27.95;13.63;;;6.60;94.50;;;;;;5036863;28;20033;-75
2020/12/02 09:44:35;;;;;;;27.75;12.85;;;6.70;94.40;;;;;;5040276;28;20025;-76
2020/12/02 09:47:11;;;;;;;26.92;14.18;;;6.70;94.40;;;;;;5032025;28;20050;-75
2020/12/02 09:49:39;;;;;;;29.73;14.38;;;6.70;94.40;;;;;;5015577;28;20073;-75
2020/12/02 09:52:13;;;;;;;24.58;12.75;;;6.70;94.40;;;;;;5016873;28;20026;-76
2020/12/02 09:54:41;;;;;;;30.50;15.10;;;6.70;94.30;;;;;;5025316;28;20052;-76
2020/12/02 09:57:24;;;;;;;32.00;14.80;;;6.70;94.30;;;;;;5036598;28;20052;-75
2020/12/02 09:59:50;;;;;;;30.95;14.55;;;6.80;94.30;;;;;;5036638;28;20025;-76
2020/12/02 10:02:46;;;;;;;30.52;14.95;;;6.80;94.30;;;;;;5036442;28;20033;-75
2020/12/02 10:05:31;;;;;;;29.15;14.82;;;6.80;94.20;;;;;;5032925;28;20049;-76
2020/12/02 10:08:09;;;;;;;27.55;14.30;;;6.80;94.10;;;;;;5050777;28;20031;-75
2020/12/02 10:10:54;;;;;;;30.27;14.50;;;6.70;94.10;;;;;;5056302;28;20102;-76
2020/12/02 10:13:53;;;;;;;28.38;12.82;;;6.70;94.10;;;;;;5029366;28;20426;-75
2020/12/02 10:16:46;;;;;;;25.98;12.95;;;6.70;94.00;;;;;;5016672;28;20472;-75
2020/12/02 10:19:27;;;;;;;28.45;14.13;;;6.80;94.00;;;;;;5017034;28;20583;-75
2020/12/02 10:22:11;;;;;;;27.90;13.98;;;6.80;94.00;;;;;;5016620;28;20044;-76
2020/12/02 10:25:00;;;;;;;29.52;13.77;;;6.80;94.00;;;;;;5021576;28;20475;-75
2020/12/02 10:27:43;;;;;;;28.45;13.80;;;6.80;94.00;;;;;;5035788;28;20029;-75
2020/12/02 10:30:14;;;;;;;26.98;13.60;;;6.80;94.00;;;;;;5034817;28;20029;-76
2020/12/02 10:33:11;;;;;;;29.48;14.95;;;6.80;94.00;;;;;;5034730;28;20029;-76
2020/12/02 10:35:39;;;;;;;26.63;14.20;;;6.80;93.90;;;;;;5034401;28;20045;-76
2020/12/02 10:38:12;;;;;;;29.23;14.15;;;6.80;94.00;;;;;;5034365;28;20040;-76
2020/12/02 10:40:49;;;;;;;30.00;15.13;;;6.90;94.00;;;;;;5014831;28;20476;-76
2020/12/02 10:43:50;;;;;;;27.13;14.70;;;6.90;94.00;;;;;;5025365;28;20112;-75
2020/12/02 10:46:45;;;;;;;29.52;14.68;;;6.90;93.90;;;;;;5037321;28;20045;-75
2020/12/02 10:49:30;;;;;;;27.63;15.15;;;6.90;93.90;;;;;;5033728;28;20047;-75
2020/12/02 10:51:58;;;;;;;29.00;15.02;;;6.90;93.80;;;;;;5035454;28;20124;-76
2020/12/02 10:54:27;;;;;;;29.65;14.73;;;6.90;93.70;;;;;;5062526;28;20109;-75
2020/12/02 10:56:56;;;;;;;32.40;16.02;;;6.80;93.80;;;;;;5037862;28;20434;-75
2020/12/02 10:59:24;;;;;;;27.25;14.07;;;6.90;93.90;;;;;;5029635;28;20033;-76
2020/12/02 11:01:50;;;;;;;42.72;17.58;;;6.90;93.90;;;;;;5023165;28;20030;-75
2020/12/02 11:04:17;;;;;;;26.27;14.38;;;6.90;93.80;;;;;;5034443;28;20103;-76
2020/12/02 11:07:28;;;;;;;32.08;15.20;;;6.90;93.70;;;;;;5026258;28;20515;-76
2020/12/02 11:10:20;;;;;;;28.67;14.30;;;7.00;93.70;;;;;;5015874;28;20052;-75
2020/12/02 11:13:11;;;;;;;25.70;13.25;;;7.00;93.70;;;;;;5033901;28;20033;-75
2020/12/02 11:15:45;;;;;;;28.90;14.73;;;7.00;93.70;;;;;;5034772;28;20033;-74
2020/12/02 11:18:37;;;;;;;25.88;13.77;;;7.00;93.70;;;;;;5023342;28;20036;-74
2020/12/02 11:21:40;;;;;;;29.13;14.00;;;7.00;93.60;;;;;;5046542;28;20017;-75
2020/12/02 11:24:22;;;;;;;26.40;14.02;;;7.00;93.60;;;;;;5034641;28;20025;-74
2020/12/02 11:26:48;;;;;;;27.67;14.27;;;7.00;93.70;;;;;;5030102;28;20018;-74
2020/12/02 11:29:15;;;;;;;30.52;15.50;;;7.00;93.70;;;;;;5014787;28;20030;-74
2020/12/02 11:31:51;;;;;;;28.50;15.18;;;7.00;93.60;;;;;;5013390;28;20022;-74
2020/12/02 11:34:38;;;;;;;28.88;14.43;;;7.10;93.60;;;;;;5032393;28;20022;-74
2020/12/02 11:37:10;;;;;;;25.05;13.57;;;7.10;93.60;;;;;;5034929;28;20392;-75
2020/12/02 11:39:54;;;;;;;23.15;11.35;;;7.10;93.60;;;;;;5036198;28;20442;-75
2020/12/02 11:42:32;;;;;;;28.02;12.73;;;7.10;93.60;;;;;;5030888;28;20071;-75
2020/12/02 11:45:21;;;;;;;27.15;12.68;;;7.10;93.60;;;;;;5014323;28;20026;-75
2020/12/02 11:48:08;;;;;;;27.67;13.50;;;7.10;93.50;;;;;;5014422;28;20049;-74
2020/12/02 11:50:37;;;;;;;26.27;12.77;;;7.10;93.60;;;;;;5014524;28;20133;-74
2020/12/02 11:53:30;;;;;;;25.52;11.52;;;7.10;93.60;;;;;;5023559;28;20026;-74
2020/12/02 11:55:56;;;;;;;27.60;12.10;;;7.20;93.50;;;;;;5034197;28;20044;-75
2020/12/02 11:58:22;;;;;;;28.83;12.88;;;7.10;93.60;;;;;;5034148;28;20479;-76
2020/12/02 12:00:50;;;;;;;28.25;13.07;;;7.10;93.50;;;;;;5032408;28;20448;-76
2020/12/02 12:03:31;;;;;;;28.92;12.65;;;7.20;93.60;;;;;;5020568;28;20033;-75
2020/12/02 12:06:15;;;;;;;30.85;13.40;;;7.20;93.50;;;;;;5033691;28;20056;-75
2020/12/02 12:09:15;;;;;;;27.70;12.55;;;7.20;93.50;;;;;;5027987;28;20013;-75
2020/12/02 12:11:40;;;;;;;28.50;12.73;;;7.20;93.50;;;;;;5029435;28;20030;-75
2020/12/02 12:14:25;;;;;;;27.15;13.70;;;7.20;93.50;;;;;;5029562;28;20535;-75
2020/12/02 12:17:19;;;;;;;27.77;12.68;;;7.20;93.40;;;;;;5032003;28;20029;-75
2020/12/02 12:19:50;;;;;;;28.08;14.02;;;7.20;93.40;;;;;;5014143;28;20022;-75
2020/12/02 12:22:33;;;;;;;29.50;14.65;;;7.20;93.40;;;;;;5026046;28;20057;-74
2020/12/02 12:25:06;;;;;;;32.88;14.30;;;7.20;93.40;;;;;;5032043;28;20176;-75
2020/12/02 12:27:31;;;;;;;34.50;14.95;;;7.20;93.40;;;;;;5032666;28;20055;-75
2020/12/02 12:29:57;;;;;;;29.45;14.60;;;7.20;93.30;;;;;;5033542;28;20068;-74
2020/12/02 12:32:36;;;;;;;31.95;14.77;;;7.20;93.40;;;;;;5033580;28;20018;-76
2020/12/02 12:35:06;;;;;;;31.13;14.13;;;7.20;93.30;;;;;;5033027;28;20029;-76
2020/12/02 12:38:03;;;;;;;32.35;15.15;;;7.20;93.30;;;;;;5033533;28;20102;-76
2020/12/02 12:40:44;;;;;;;30.52;13.98;;;7.20;93.30;;;;;;5032162;28;20025;-75
2020/12/02 12:43:17;;;;;;;33.72;15.45;;;7.10;93.30;;;;;;5033516;28;20053;-76
2020/12/02 12:45:59;;;;;;;40.65;17.05;;;7.10;93.30;;;;;;5027303;28;20068;-76
2020/12/02 12:48:24;;;;;;;37.03;16.45;;;7.10;93.40;;;;;;5025054;28;20399;-76
2020/12/02 12:50:52;;;;;;;44.03;17.45;;;7.10;93.40;;;;;;5030057;28;20029;-76
2020/12/02 12:53:21;;;;;;;43.40;18.05;;;7.10;93.40;;;;;;5033168;28;20375;-74
2020/12/02 12:55:47;;;;;;;41.30;19.17;;;7.10;93.50;;;;;;5031191;28;20021;-74
2020/12/02 12:58:15;;;;;;;47.88;19.35;;;7.00;93.40;;;;;;5033158;28;20029;-75
2020/12/02 13:00:44;;;;;;;38.90;17.45;;;7.00;93.40;;;;;;5019250;28;20505;-74
2020/12/02 13:03:19;;;;;;;36.42;15.65;;;7.10;93.50;;;;;;5032922;28;20108;-75
2020/12/02 13:06:00;;;;;;;37.13;16.75;;;7.00;93.50;;;;;;5032599;28;20130;-75